Estancia La Primavera, Argentina
Current Conditions -  °F | °C
As of 4:00 PM on Sunday 21 Dec 2014 (Local Time) from SAZN Reporting Station
Scattered Clouds Scattered Clouds  
Wind Chill: 64°   Ceiling: Unl
Heat Index: 64°   Visibility: 6mi
Dew Point: 25°   Wind: 5mph
Humidity: 22%   Direction: 230°SW
Pressure: 29.97"   Gusts: NA
Location:  38.48°S, 67.46°W
Report Text: SAZN 211900Z 23004KT 9999 SCT030 SCT04018/M04 Q1015
Loading
Personal Weather Stations






























Interactive Weather Map New forecast layout! Learn more

10-Day Weather Forecast

Advertisements
Track Severe Weather on mobile